Terminal Aerodrome Forecast
Issued by NWS

Home | Current Version | Previous Version | Text Only | Print | Product List | Glossary On
Versions: 1 2 3 4 5 6 7 8 9 10 11 12 13 14 15 16 17 18 19 20 21
000
FTUS45 KBOU 240357 AAA
TAFBJC
TAF AMD
KBJC 240357Z 2404/2424 27015G28KT P6SM BKN120 OVC150
     FM240700 27012KT P6SM BKN120 OVC150
     FM241200 20008KT P6SM FEW080 OVC150
     FM241500 11010KT P6SM FEW080 OVC150 PROB30 2419/2423 VRB15G25KT
      P6SM -TSRA BKN060CB
     FM242300 12008KT P6SM SCT040 OVC060=

USA.gov is the U.S. government's official web portal to all federal, state and local government web resources and services.